עמוד ראשי
METAR-TAF:

METAR-TAF

שדות תעופה :

Rurrenabaque, בוליביה

קו רוחב: 14-28S, קו אורך: 067-34W, גובה: 204מטר

תצפית מזג אוויר נוכחית

הדו"ח נערך לפני 3 שעות ו 56דקות, בשעה 21:00 UTC
רוח 3קשר מכיוון צפון/צפון-מזרח
טמפרטורת 26 צלסיוס
לחות 58%
לחץ 1011 hPa
ראות 10 קילומטר או יותר

METAR: SLRQ 202100Z 03003KT 9999 NSC 26/17 Q1011

זמן: 20:56 (00:56 UTC)


TAF: חסר

תצפיות ותחזיות מזג אוויר לגבי יותר מ- 4,000 שדות תעופה ברחבי העולם. דוחות METAR ו- TAF.

התחנות הזמינות מסומנות בנקודות צהובות ואדומות על גבי המפה.

העבר את העכבר לנקודה הצבעונית על מנת לראות את שם התחנה.

לאחר מכן, לחץ כדי לראות את תוכן ואת תחזיות מזג האוויר.

כדי לשנות את המפה: לחץ על הכפתורים הירוקים עם הפלוס השחור כדי להתקרב; על הכפתור הירוק עם המקף כדי להתרחק; או בחיצים הירוקים למפות סמוכות.


METAR-TAF: